createdAt,value
2023-05-22T00:02:05.924Z,100691.84
2023-05-22T00:07:10.968Z,100697.72
2023-05-22T00:12:16.076Z,100696.22
2023-05-22T00:17:21.761Z,100698.91
2023-05-22T00:22:29.646Z,100692.75
2023-05-22T00:27:35.610Z,100701.91
2023-05-22T00:32:41.825Z,100715.28
2023-05-22T00:37:48.128Z,100704.78
2023-05-22T00:42:53.095Z,100703.75
2023-05-22T00:47:58.216Z,100702.75
2023-05-22T00:53:03.898Z,100710.03
2023-05-22T00:58:10.317Z,100718.38
2023-05-22T01:03:16.421Z,100701.63
2023-05-22T01:08:22.668Z,100694.13
2023-05-22T01:13:49.066Z,100696.72
2023-05-22T01:19:20.924Z,100697.97
2023-05-22T01:25:11.372Z,100690.94
2023-05-22T01:30:47.355Z,100692.19
2023-05-22T01:35:56.821Z,100693.44
2023-05-22T01:41:01.831Z,100675.94
2023-05-22T01:46:08.368Z,100681.50
2023-05-22T01:51:23.823Z,100699.22
2023-05-22T01:56:41.393Z,100677.91
2023-05-22T02:01:47.725Z,100684.06
2023-05-22T02:06:55.953Z,100669.91
2023-05-22T02:12:03.633Z,100669.34
2023-05-22T02:17:10.122Z,100683.91
2023-05-22T02:22:16.133Z,100665.91
2023-05-22T02:27:21.718Z,100659.50
2023-05-22T02:32:27.270Z,100669.81
2023-05-22T02:37:33.223Z,100659.31
2023-05-22T02:42:38.975Z,100638.94
2023-05-22T02:47:44.646Z,100640.16
2023-05-22T02:52:51.878Z,100636.50
2023-05-22T02:57:57.444Z,100625.50
2023-05-22T03:03:03.250Z,100613.91
2023-05-22T03:08:08.616Z,100605.31
2023-05-22T03:13:14.189Z,100600.25
2023-05-22T03:18:20.049Z,100596.88
2023-05-22T03:23:26.603Z,100596.13
2023-05-22T03:28:32.164Z,100595.47
2023-05-22T03:33:37.853Z,100599.03
2023-05-22T03:38:43.733Z,100602.66
2023-05-22T03:43:50.631Z,100594.03
2023-05-22T03:48:57.096Z,100591.13
2023-05-22T03:54:02.728Z,100569.75
2023-05-22T03:59:09.109Z,100568.97
2023-05-22T04:04:14.974Z,100567.13
2023-05-22T04:09:20.899Z,100562.31
2023-05-22T04:14:26.465Z,100552.31
2023-05-22T04:19:32.255Z,100551.56
2023-05-22T04:24:40.955Z,100541.34
2023-05-22T04:29:46.532Z,100524.06
2023-05-22T04:34:55.288Z,100528.16
2023-05-22T04:40:04.604Z,100501.09
2023-05-22T04:45:11.439Z,100497.88
2023-05-22T04:50:17.612Z,100497.09
2023-05-22T04:55:26.368Z,100478.34
2023-05-22T05:00:32.002Z,100472.09
2023-05-22T05:05:37.090Z,100465.31
2023-05-22T05:10:42.879Z,100474.31
2023-05-22T05:15:48.701Z,100458.09
2023-05-22T05:20:54.939Z,100438.56
2023-05-22T05:26:00.400Z,100435.28
2023-05-22T05:31:06.258Z,100433.63
2023-05-22T05:36:28.893Z,100422.53
2023-05-22T05:41:34.512Z,100428.78
2023-05-22T05:46:45.126Z,100427.75
2023-05-22T05:51:53.063Z,100425.06
2023-05-22T05:57:00.162Z,100445.16
2023-05-22T06:02:06.798Z,100413.19
2023-05-22T06:07:13.770Z,100415.63
2023-05-22T06:12:24.134Z,100413.97
2023-05-22T06:17:29.769Z,100413.16
2023-05-22T06:22:35.498Z,100420.69
2023-05-22T06:27:42.195Z,100406.00
2023-05-22T06:32:48.691Z,100437.59
2023-05-22T06:37:57.448Z,100415.53
2023-05-22T06:43:04.880Z,100369.53
2023-05-22T06:48:29.901Z,100369.31
2023-05-22T06:53:49.289Z,100371.25
2023-05-22T06:58:58.833Z,100391.31
2023-05-22T07:04:25.502Z,100365.91
2023-05-22T07:09:37.868Z,100355.38
2023-05-22T07:14:43.904Z,100362.19
2023-05-22T07:19:53.326Z,100355.13
2023-05-22T07:24:59.480Z,100325.81
2023-05-22T07:30:10.390Z,100318.78
2023-05-22T07:35:17.557Z,100323.41
2023-05-22T07:40:24.453Z,100341.84
2023-05-22T07:45:32.607Z,100342.34
2023-05-22T07:50:46.106Z,100309.53
2023-05-22T07:55:53.030Z,100308.19
2023-05-22T08:00:58.793Z,100302.50
2023-05-22T08:06:04.871Z,100290.84
2023-05-22T08:11:10.423Z,100279.44
2023-05-22T08:16:15.776Z,100269.97
2023-05-22T08:21:21.051Z,100265.13
2023-05-22T08:26:26.261Z,100261.81
2023-05-22T08:31:31.375Z,100250.16
2023-05-22T08:36:36.677Z,100245.50
2023-05-22T08:41:41.627Z,100239.47
2023-05-22T08:46:49.285Z,100240.50
2023-05-22T08:52:02.306Z,100261.34
2023-05-22T08:57:07.902Z,100237.63
2023-05-22T09:02:15.522Z,100240.28
2023-05-22T09:07:23.518Z,100229.03
2023-05-22T09:12:31.536Z,100242.97
2023-05-22T09:17:36.562Z,100242.75
2023-05-22T09:22:41.629Z,100236.38
2023-05-22T09:27:55.911Z,100238.66
2023-05-22T09:33:01.339Z,100236.75
2023-05-22T09:38:06.339Z,100239.22
2023-05-22T09:43:19.402Z,100234.59
2023-05-22T09:48:24.870Z,100240.28
2023-05-22T09:53:31.806Z,100243.56
2023-05-22T09:58:40.763Z,100229.66
2023-05-22T10:03:48.590Z,100236.22
2023-05-22T10:09:04.058Z,100231.88
2023-05-22T10:14:09.785Z,100234.06
2023-05-22T10:19:17.289Z,100240.09
2023-05-22T10:24:22.970Z,100241.47
2023-05-22T10:29:35.382Z,100240.13
2023-05-22T10:35:24.253Z,100245.59
2023-05-22T10:40:36.944Z,100269.97
2023-05-22T10:45:45.412Z,100269.97
2023-05-22T10:50:54.320Z,100281.31
2023-05-22T10:56:03.859Z,100301.34
2023-05-22T11:01:18.963Z,100295.88
2023-05-22T11:06:47.905Z,100295.03
2023-05-22T11:12:29.860Z,100303.38
2023-05-22T11:17:52.639Z,100297.63
2023-05-22T11:23:05.959Z,100336.50
2023-05-22T11:28:15.546Z,100310.44
2023-05-22T11:33:20.906Z,100324.91
2023-05-22T11:38:28.296Z,100326.97
2023-05-22T11:43:38.441Z,100327.47
2023-05-22T11:48:44.716Z,100334.16
2023-05-22T11:53:50.339Z,100356.78
2023-05-22T11:58:56.640Z,100342.63
2023-05-22T12:04:02.108Z,100375.25
2023-05-22T12:09:09.868Z,100377.91
2023-05-22T12:14:15.734Z,100374.59
2023-05-22T12:19:20.835Z,100366.94
2023-05-22T12:24:25.928Z,100377.66
2023-05-22T12:29:31.136Z,100379.41
2023-05-22T12:34:38.530Z,100388.22
2023-05-22T12:39:55.447Z,100389.19
2023-05-22T12:45:02.619Z,100399.59
2023-05-22T12:50:08.303Z,100399.97
2023-05-22T12:55:15.590Z,100415.94
2023-05-22T13:00:20.758Z,100442.91
2023-05-22T13:05:25.897Z,100438.44
2023-05-22T13:10:31.814Z,100449.75
2023-05-22T13:15:37.502Z,100457.50
2023-05-22T13:20:42.846Z,100471.44
2023-05-22T13:25:47.710Z,100474.38
2023-05-22T13:30:52.574Z,100470.78
2023-05-22T13:35:58.057Z,100471.16
2023-05-22T13:41:03.400Z,100489.91
2023-05-22T13:46:09.579Z,100484.19
2023-05-22T13:51:15.498Z,100487.38
2023-05-22T13:56:20.532Z,100533.44
2023-05-22T14:01:26.136Z,100485.41
2023-05-22T14:06:31.213Z,100508.00
2023-05-22T14:11:36.325Z,100507.09
2023-05-22T14:16:41.762Z,100507.31
2023-05-22T14:21:50.460Z,100511.31
2023-05-22T14:27:00.904Z,100521.53
2023-05-22T14:32:07.001Z,100516.22
2023-05-22T14:37:12.311Z,100544.69
2023-05-22T14:42:18.377Z,100518.69
2023-05-22T14:47:24.063Z,100520.81
2023-05-22T14:52:30.272Z,100505.59
2023-05-22T14:57:36.036Z,100535.69
2023-05-22T15:02:42.393Z,100519.66
2023-05-22T15:07:49.766Z,100522.47
2023-05-22T15:12:57.166Z,100532.06
2023-05-22T15:18:04.008Z,100532.75
2023-05-22T15:23:10.521Z,100538.84
2023-05-22T15:28:15.574Z,100539.78
2023-05-22T15:33:21.765Z,100538.63
2023-05-22T15:38:27.844Z,100532.28
2023-05-22T15:43:32.904Z,100546.44
2023-05-22T15:48:38.406Z,100551.69
2023-05-22T15:53:43.566Z,100550.50
2023-05-22T15:58:48.644Z,100562.75
2023-05-22T16:03:54.364Z,100557.81
2023-05-22T16:08:59.385Z,100552.34
2023-05-22T16:14:06.055Z,100555.72
2023-05-22T16:19:12.699Z,100548.91
2023-05-22T16:24:17.755Z,100560.16
2023-05-22T16:29:22.701Z,100601.16
2023-05-22T16:34:27.892Z,100563.59
2023-05-22T16:39:32.895Z,100567.38
2023-05-22T16:44:37.914Z,100547.69
2023-05-22T16:49:42.900Z,100575.16
2023-05-22T16:54:48.013Z,100544.34
2023-05-22T16:59:52.951Z,100542.03
2023-05-22T17:04:57.605Z,100532.44
2023-05-22T17:10:03.576Z,100521.31
2023-05-22T17:15:09.115Z,100527.56
2023-05-22T17:20:14.085Z,100516.66
2023-05-22T17:25:20.163Z,100518.59
2023-05-22T17:30:25.232Z,100503.25
2023-05-22T17:35:30.974Z,100516.28
2023-05-22T17:40:43.892Z,100530.63
2023-05-22T17:45:54.546Z,100545.47
2023-05-22T17:51:01.419Z,100506.59
2023-05-22T17:56:07.110Z,100517.19
2023-05-22T18:01:12.298Z,100519.75
2023-05-22T18:06:17.605Z,100535.84
2023-05-22T18:11:24.080Z,100515.47
2023-05-22T18:16:29.643Z,100517.97
2023-05-22T18:21:35.176Z,100529.50
2023-05-22T18:26:41.612Z,100520.09
2023-05-22T18:31:47.054Z,100520.97
2023-05-22T18:36:55.204Z,100510.28
2023-05-22T18:42:00.554Z,100511.56
2023-05-22T18:47:05.721Z,100498.03
2023-05-22T18:52:10.916Z,100495.94
2023-05-22T18:57:16.146Z,100500.09
2023-05-22T19:02:23.152Z,100490.66
2023-05-22T19:07:28.752Z,100497.03
2023-05-22T19:12:34.090Z,100489.81
2023-05-22T19:17:40.619Z,100482.88
2023-05-22T19:22:46.281Z,100484.94
2023-05-22T19:27:52.560Z,100479.81
2023-05-22T19:32:57.954Z,100515.84
2023-05-22T19:38:03.126Z,100485.59
2023-05-22T19:43:08.351Z,100476.56
2023-05-22T19:48:15.215Z,100485.84
2023-05-22T19:53:20.602Z,100482.75
2023-05-22T19:58:26.057Z,100492.44
2023-05-22T20:03:31.542Z,100495.09
2023-05-22T20:08:37.757Z,100501.50
2023-05-22T20:13:43.223Z,100495.72
2023-05-22T20:18:49.967Z,100495.28
2023-05-22T20:23:56.871Z,100536.00
2023-05-22T20:29:02.571Z,100498.19
2023-05-22T20:34:09.569Z,100512.97
2023-05-22T20:39:14.490Z,100508.44
2023-05-22T20:44:24.706Z,100515.59
2023-05-22T20:49:31.151Z,100520.69
2023-05-22T20:54:39.220Z,100549.41
2023-05-22T20:59:44.568Z,100550.22
2023-05-22T21:04:49.539Z,100514.47
2023-05-22T21:09:54.915Z,100516.94
2023-05-22T21:15:01.676Z,100531.06
2023-05-22T21:20:07.610Z,100528.38
2023-05-22T21:25:13.169Z,100520.19
2023-05-22T21:30:18.966Z,100524.06
2023-05-22T21:35:24.524Z,100539.88
2023-05-22T21:40:29.907Z,100549.72
2023-05-22T21:45:35.618Z,100575.59
2023-05-22T21:50:41.495Z,100557.16
2023-05-22T21:55:48.142Z,100554.72
2023-05-22T22:00:53.547Z,100547.72
2023-05-22T22:05:59.155Z,100542.59
2023-05-22T22:11:04.895Z,100557.63
2023-05-22T22:16:10.473Z,100549.03
2023-05-22T22:21:16.682Z,100581.53
2023-05-22T22:26:22.309Z,100552.44
2023-05-22T22:31:27.864Z,100554.09
2023-05-22T22:36:34.064Z,100551.84
2023-05-22T22:41:39.525Z,100551.66
2023-05-22T22:46:45.369Z,100555.38
2023-05-22T22:51:52.393Z,100546.31
2023-05-22T22:56:57.764Z,100554.13
2023-05-22T23:02:03.443Z,100561.50
2023-05-22T23:07:10.248Z,100555.13
2023-05-22T23:12:16.717Z,100557.78
2023-05-22T23:17:22.336Z,100569.28
2023-05-22T23:22:27.552Z,100605.47
2023-05-22T23:27:32.906Z,100567.09
2023-05-22T23:32:38.654Z,100564.13
2023-05-22T23:37:43.957Z,100567.78
2023-05-22T23:42:50.563Z,100560.84
2023-05-22T23:47:56.560Z,100559.72
2023-05-22T23:53:01.877Z,100554.47
2023-05-22T23:58:07.354Z,100557.44
